Mogoca, Russia
Current Conditions -  °F | °C
As of 1:00 AM on Saturday 20 Dec 2014 (Local Time) from UIAA Reporting Station
Few Clouds Few Clouds  
Wind Chill: -11°   Ceiling: Unl
Heat Index: -11°   Visibility: 6mi
Dew Point: -15°   Wind: 0mph
Humidity: 84%   Direction: NA
Pressure: 30.15"   Gusts: NA
Location:  53.75°N, 119.73°E
Report Text: UIAA 191600Z 00000MPS 9000 FEW100 M24/M26 Q1021 NOSIG RMKQFE707 29CLRD70
Loading
Personal Weather Stations






























Interactive Weather Map New forecast layout! Learn more

10-Day Weather Forecast

Advertisements
Track Severe Weather on mobile